sensor_id;sensor_type;location;lat;lon;timestamp;pressure;altitude;pressure_sealevel;temperature;humidity
63881;BME280;50046;46.672;11.152;2022-09-01T00:00:07;97998.81;;;17.96;86.06
63881;BME280;50046;46.672;11.152;2022-09-01T00:00:18;97992.72;;;17.99;86.00
63881;BME280;50046;46.672;11.152;2022-09-01T00:00:32;97991.63;;;18.00;86.12
63881;BME280;50046;46.672;11.152;2022-09-01T00:00:47;97996.28;;;18.00;86.15
63881;BME280;50046;46.672;11.152;2022-09-01T00:01:00;97997.88;;;18.01;85.95
63881;BME280;50046;46.672;11.152;2022-09-01T00:01:17;97992.72;;;17.99;85.84
63881;BME280;50046;46.672;11.152;2022-09-01T00:01:31;97988.09;;;18.00;85.88
63881;BME280;50046;46.672;11.152;2022-09-01T00:01:44;97998.19;;;17.99;85.87
63881;BME280;50046;46.672;11.152;2022-09-01T00:01:54;97990.63;;;17.96;85.85
63881;BME280;50046;46.672;11.152;2022-09-01T00:02:06;97992.56;;;17.96;85.69
63881;BME280;50046;46.672;11.152;2022-09-01T00:02:17;97993.06;;;17.98;86.11
63881;BME280;50046;46.672;11.152;2022-09-01T00:02:28;97991.13;;;17.98;85.85
63881;BME280;50046;46.672;11.152;2022-09-01T00:02:39;97986.97;;;18.01;86.15
63881;BME280;50046;46.672;11.152;2022-09-01T00:02:52;97989.69;;;18.01;85.92
63881;BME280;50046;46.672;11.152;2022-09-01T00:03:03;97994.03;;;18.02;86.11
63881;BME280;50046;46.672;11.152;2022-09-01T00:03:16;97998.69;;;18.01;85.94
63881;BME280;50046;46.672;11.152;2022-09-01T00:03:28;97994.34;;;18.00;85.61
63881;BME280;50046;46.672;11.152;2022-09-01T00:03:38;97992.25;;;17.97;85.55
63881;BME280;50046;46.672;11.152;2022-09-01T00:03:50;97998.81;;;17.96;85.53
63881;BME280;50046;46.672;11.152;2022-09-01T00:04:02;97989.81;;;17.96;85.36
63881;BME280;50046;46.672;11.152;2022-09-01T00:04:16;97996.41;;;17.95;85.52
63881;BME280;50046;46.672;11.152;2022-09-01T00:04:28;97991.75;;;17.95;85.65
63881;BME280;50046;46.672;11.152;2022-09-01T00:04:38;97992.25;;;17.97;85.76
63881;BME280;50046;46.672;11.152;2022-09-01T00:04:49;97987.25;;;17.99;85.89
63881;BME280;50046;46.672;11.152;2022-09-01T00:04:59;97988.88;;;18.00;85.43
63881;BME280;50046;46.672;11.152;2022-09-01T00:05:10;97989.53;;;17.97;85.42
63881;BME280;50046;46.672;11.152;2022-09-01T00:05:22;97993.19;;;17.93;85.09
63881;BME280;50046;46.672;11.152;2022-09-01T00:05:32;97988.81;;;17.92;85.57
63881;BME280;50046;46.672;11.152;2022-09-01T00:05:43;97986.09;;;17.92;85.72
63881;BME280;50046;46.672;11.152;2022-09-01T00:05:55;97996.22;;;17.91;85.84
63881;BME280;50046;46.672;11.152;2022-09-01T00:06:06;97991.88;;;17.90;85.41
63881;BME280;50046;46.672;11.152;2022-09-01T00:06:20;97990.56;;;17.88;85.87
63881;BME280;50046;46.672;11.152;2022-09-01T00:06:34;97993.31;;;17.88;86.12
63881;BME280;50046;46.672;11.152;2022-09-01T00:06:44;97991.22;;;17.85;85.93
63881;BME280;50046;46.672;11.152;2022-09-01T00:06:55;97989.28;;;17.85;86.05
63881;BME280;50046;46.672;11.152;2022-09-01T00:07:07;97991.88;;;17.90;86.06
63881;BME280;50046;46.672;11.152;2022-09-01T00:07:18;97988.34;;;17.90;85.89
63881;BME280;50046;46.672;11.152;2022-09-01T00:07:29;97991.25;;;17.93;85.97
63881;BME280;50046;46.672;11.152;2022-09-01T00:07:40;97994.28;;;17.92;85.84
63881;BME280;50046;46.672;11.152;2022-09-01T00:07:50;97992.69;;;17.91;85.84
63881;BME280;50046;46.672;11.152;2022-09-01T00:08:03;97991.09;;;17.90;86.01
63881;BME280;50046;46.672;11.152;2022-09-01T00:08:13;97990.75;;;17.91;85.91
63881;BME280;50046;46.672;11.152;2022-09-01T00:08:24;97994.63;;;17.90;85.91
63881;BME280;50046;46.672;11.152;2022-09-01T00:08:34;97995.72;;;17.89;85.94
63881;BME280;50046;46.672;11.152;2022-09-01T00:08:45;97992.19;;;17.89;85.64
63881;BME280;50046;46.672;11.152;2022-09-01T00:08:57;97990.06;;;17.86;85.53
63881;BME280;50046;46.672;11.152;2022-09-01T00:09:14;97988.94;;;17.87;85.51
63881;BME280;50046;46.672;11.152;2022-09-01T00:09:25;97988.16;;;17.86;85.52
63881;BME280;50046;46.672;11.152;2022-09-01T00:09:36;97987.34;;;17.86;85.51
63881;BME280;50046;46.672;11.152;2022-09-01T00:09:47;97989.44;;;17.89;85.59
63881;BME280;50046;46.672;11.152;2022-09-01T00:09:58;97992.97;;;17.89;85.57
63881;BME280;50046;46.672;11.152;2022-09-01T00:10:09;97994.75;;;17.85;85.18
63881;BME280;50046;46.672;11.152;2022-09-01T00:10:20;97993.59;;;17.86;85.41
63881;BME280;50046;46.672;11.152;2022-09-01T00:10:31;97997.13;;;17.87;85.32
63881;BME280;50046;46.672;11.152;2022-09-01T00:10:42;97991.50;;;17.83;84.92
63881;BME280;50046;46.672;11.152;2022-09-01T00:10:54;97988.16;;;17.86;85.53
63881;BME280;50046;46.672;11.152;2022-09-01T00:11:04;97992.81;;;17.86;85.32
63881;BME280;50046;46.672;11.152;2022-09-01T00:11:15;97992.19;;;17.89;85.00
63881;BME280;50046;46.672;11.152;2022-09-01T00:11:27;97983.97;;;17.89;85.37
63881;BME280;50046;46.672;11.152;2022-09-01T00:11:40;97989.66;;;17.92;84.94
63881;BME280;50046;46.672;11.152;2022-09-01T00:11:53;97989.66;;;17.92;84.94
63881;BME280;50046;46.672;11.152;2022-09-01T00:12:06;97995.13;;;17.92;85.00
63881;BME280;50046;46.672;11.152;2022-09-01T00:12:17;97993.19;;;17.93;85.17
63881;BME280;50046;46.672;11.152;2022-09-01T00:12:28;97995.13;;;17.92;85.07
63881;BME280;50046;46.672;11.152;2022-09-01T00:12:39;97991.53;;;17.92;84.94
63881;BME280;50046;46.672;11.152;2022-09-01T00:12:50;97992.50;;;17.87;84.73
63881;BME280;50046;46.672;11.152;2022-09-01T00:13:00;97991.88;;;17.90;84.72
63881;BME280;50046;46.672;11.152;2022-09-01T00:13:11;97991.53;;;17.92;84.82
63881;BME280;50046;46.672;11.152;2022-09-01T00:13:22;97984.78;;;17.89;84.66
63881;BME280;50046;46.672;11.152;2022-09-01T00:13:32;97984.78;;;17.89;84.72
63881;BME280;50046;46.672;11.152;2022-09-01T00:13:43;97992.69;;;17.91;84.56
63881;BME280;50046;46.672;11.152;2022-09-01T00:13:54;97988.81;;;17.92;84.60
63881;BME280;50046;46.672;11.152;2022-09-01T00:14:07;97983.34;;;17.92;84.47
63881;BME280;50046;46.672;11.152;2022-09-01T00:14:22;97989.66;;;17.92;84.36
63881;BME280;50046;46.672;11.152;2022-09-01T00:14:36;97987.22;;;17.91;84.35
63881;BME280;50046;46.672;11.152;2022-09-01T00:14:48;97983.69;;;17.90;84.77
63881;BME280;50046;46.672;11.152;2022-09-01T00:15:00;97985.13;;;17.88;84.41
63881;BME280;50046;46.672;11.152;2022-09-01T00:15:11;97984.78;;;17.89;84.50
63881;BME280;50046;46.672;11.152;2022-09-01T00:15:22;97984.78;;;17.89;84.83
63881;BME280;50046;46.672;11.152;2022-09-01T00:15:34;97983.97;;;17.89;84.38
63881;BME280;50046;46.672;11.152;2022-09-01T00:15:45;97983.97;;;17.89;84.39
63881;BME280;50046;46.672;11.152;2022-09-01T00:15:55;97983.47;;;17.87;84.28
63881;BME280;50046;46.672;11.152;2022-09-01T00:16:07;97980.75;;;17.87;84.50
63881;BME280;50046;46.672;11.152;2022-09-01T00:16:20;97984.31;;;17.87;84.72
63881;BME280;50046;46.672;11.152;2022-09-01T00:16:30;97978.34;;;17.85;84.61
63881;BME280;50046;46.672;11.152;2022-09-01T00:16:41;97983.47;;;17.87;84.78
63881;BME280;50046;46.672;11.152;2022-09-01T00:16:51;97981.59;;;17.87;84.91
63881;BME280;50046;46.672;11.152;2022-09-01T00:17:06;97984.47;;;17.91;85.18
63881;BME280;50046;46.672;11.152;2022-09-01T00:17:17;97984.66;;;17.94;84.99
63881;BME280;50046;46.672;11.152;2022-09-01T00:17:27;97987.09;;;17.96;84.98
63881;BME280;50046;46.672;11.152;2022-09-01T00:17:39;97983.56;;;17.95;84.64
63881;BME280;50046;46.672;11.152;2022-09-01T00:17:49;97980.03;;;17.95;84.92
63881;BME280;50046;46.672;11.152;2022-09-01T00:18:00;97985.78;;;17.93;84.83
63881;BME280;50046;46.672;11.152;2022-09-01T00:18:11;97988.00;;;17.91;84.98
63881;BME280;50046;46.672;11.152;2022-09-01T00:18:22;97985.78;;;17.93;85.31
63881;BME280;50046;46.672;11.152;2022-09-01T00:18:33;97981.13;;;17.94;85.74
63881;BME280;50046;46.672;11.152;2022-09-01T00:18:46;97989.31;;;17.94;85.59
63881;BME280;50046;46.672;11.152;2022-09-01T00:18:59;97985.47;;;17.95;85.74
63881;BME280;50046;46.672;11.152;2022-09-01T00:19:09;97985.78;;;17.93;85.62
63881;BME280;50046;46.672;11.152;2022-09-01T00:19:21;97978.72;;;17.92;85.83
63881;BME280;50046;46.672;11.152;2022-09-01T00:19:32;97985.78;;;17.93;86.20
63881;BME280;50046;46.672;11.152;2022-09-01T00:19:42;97987.88;;;17.96;86.27
63881;BME280;50046;46.672;11.152;2022-09-01T00:19:53;97979.69;;;17.96;86.42
63881;BME280;50046;46.672;11.152;2022-09-01T00:20:07;97983.94;;;18.02;85.85
63881;BME280;50046;46.672;11.152;2022-09-01T00:20:18;97980.06;;;18.03;85.86
63881;BME280;50046;46.672;11.152;2022-09-01T00:20:29;97987.63;;;18.07;86.01
63881;BME280;50046;46.672;11.152;2022-09-01T00:20:39;97984.88;;;18.07;85.76
63881;BME280;50046;46.672;11.152;2022-09-01T00:20:50;97983.59;;;18.04;85.81
63881;BME280;50046;46.672;11.152;2022-09-01T00:21:00;97987.75;;;18.01;85.95
63881;BME280;50046;46.672;11.152;2022-09-01T00:21:12;97983.94;;;18.02;86.13
63881;BME280;50046;46.672;11.152;2022-09-01T00:21:27;97983.44;;;18.00;86.20
63881;BME280;50046;46.672;11.152;2022-09-01T00:21:42;97986.97;;;18.01;86.39
63881;BME280;50046;46.672;11.152;2022-09-01T00:21:53;97984.53;;;17.99;86.45
63881;BME280;50046;46.672;11.152;2022-09-01T00:22:04;97982.94;;;17.98;86.30
63881;BME280;50046;46.672;11.152;2022-09-01T00:22:15;97982.94;;;17.98;86.42
63881;BME280;50046;46.672;11.152;2022-09-01T00:22:25;97984.34;;;17.96;86.54
63881;BME280;50046;46.672;11.152;2022-09-01T00:22:36;97980.81;;;17.95;86.26
63881;BME280;50046;46.672;11.152;2022-09-01T00:22:47;97989.03;;;17.95;86.53
63881;BME280;50046;46.672;11.152;2022-09-01T00:22:58;97986.28;;;17.95;86.73
63881;BME280;50046;46.672;11.152;2022-09-01T00:23:09;97981.94;;;17.94;86.91
63881;BME280;50046;46.672;11.152;2022-09-01T00:23:20;97985.78;;;17.93;87.23
63881;BME280;50046;46.672;11.152;2022-09-01T00:23:30;97983.06;;;17.93;87.20
63881;BME280;50046;46.672;11.152;2022-09-01T00:23:40;97986.78;;;17.97;87.02
63881;BME280;50046;46.672;11.152;2022-09-01T00:23:51;97981.63;;;17.96;86.96
63881;BME280;50046;46.672;11.152;2022-09-01T00:24:02;97981.13;;;17.94;86.99
63881;BME280;50046;46.672;11.152;2022-09-01T00:24:14;97983.84;;;17.94;86.48
63881;BME280;50046;46.672;11.152;2022-09-01T00:24:26;97987.22;;;17.91;86.53
63881;BME280;50046;46.672;11.152;2022-09-01T00:24:37;97980.16;;;17.90;86.61
63881;BME280;50046;46.672;11.152;2022-09-01T00:24:47;97977.09;;;17.91;86.51
63881;BME280;50046;46.672;11.152;2022-09-01T00:24:58;97977.28;;;17.95;86.44
63881;BME280;50046;46.672;11.152;2022-09-01T00:25:10;97980.03;;;17.95;86.39
63881;BME280;50046;46.672;11.152;2022-09-01T00:25:21;97985.28;;;17.91;86.22
63881;BME280;50046;46.672;11.152;2022-09-01T00:25:35;97978.53;;;17.89;86.38
63881;BME280;50046;46.672;11.152;2022-09-01T00:25:49;97980.75;;;17.87;86.43
63881;BME280;50046;46.672;11.152;2022-09-01T00:25:59;97984.63;;;17.86;86.68
63881;BME280;50046;46.672;11.152;2022-09-01T00:26:10;97981.38;;;17.84;86.70
63881;BME280;50046;46.672;11.152;2022-09-01T00:26:21;97978.66;;;17.84;87.10
63881;BME280;50046;46.672;11.152;2022-09-01T00:26:32;97978.34;;;17.85;87.06
63881;BME280;50046;46.672;11.152;2022-09-01T00:26:43;97977.56;;;17.85;87.33
63881;BME280;50046;46.672;11.152;2022-09-01T00:26:54;97984.13;;;17.84;87.04
63881;BME280;50046;46.672;11.152;2022-09-01T00:27:05;97978.97;;;17.82;87.27
63881;BME280;50046;46.672;11.152;2022-09-01T00:27:16;97980.88;;;17.81;86.85
63881;BME280;50046;46.672;11.152;2022-09-01T00:27:26;97974.63;;;17.81;86.95
63881;BME280;50046;46.672;11.152;2022-09-01T00:27:37;97982.81;;;17.81;87.26
63881;BME280;50046;46.672;11.152;2022-09-01T00:27:48;97980.69;;;17.78;86.87
63881;BME280;50046;46.672;11.152;2022-09-01T00:27:58;97974.41;;;17.77;87.25
63881;BME280;50046;46.672;11.152;2022-09-01T00:28:13;97983.41;;;17.78;87.13
63881;BME280;50046;46.672;11.152;2022-09-01T00:28:24;97983.41;;;17.78;87.13
63881;BME280;50046;46.672;11.152;2022-09-01T00:28:36;97975.22;;;17.78;87.37
63881;BME280;50046;46.672;11.152;2022-09-01T00:28:47;97976.81;;;17.79;87.43
63881;BME280;50046;46.672;11.152;2022-09-01T00:28:57;97974.31;;;17.83;87.35
63881;BME280;50046;46.672;11.152;2022-09-01T00:29:08;97980.88;;;17.81;86.92
63881;BME280;50046;46.672;11.152;2022-09-01T00:29:18;97977.34;;;17.81;86.89
63881;BME280;50046;46.672;11.152;2022-09-01T00:29:32;97981.38;;;17.84;86.61
63881;BME280;50046;46.672;11.152;2022-09-01T00:29:42;97981.38;;;17.84;86.77
63881;BME280;50046;46.672;11.152;2022-09-01T00:29:53;97977.84;;;17.83;86.62
63881;BME280;50046;46.672;11.152;2022-09-01T00:30:03;97982.50;;;17.83;86.86
63881;BME280;50046;46.672;11.152;2022-09-01T00:30:14;97978.16;;;17.81;86.70
63881;BME280;50046;46.672;11.152;2022-09-01T00:30:25;97980.06;;;17.81;87.13
63881;BME280;50046;46.672;11.152;2022-09-01T00:30:35;97979.53;;;17.79;87.02
63881;BME280;50046;46.672;11.152;2022-09-01T00:30:46;97976.34;;;17.77;86.91
63881;BME280;50046;46.672;11.152;2022-09-01T00:30:56;97985.63;;;17.76;86.94
63881;BME280;50046;46.672;11.152;2022-09-01T00:31:08;97976.66;;;17.75;86.96
63881;BME280;50046;46.672;11.152;2022-09-01T00:31:21;97981.59;;;17.73;87.05
63881;BME280;50046;46.672;11.152;2022-09-01T00:31:32;97980.06;;;17.81;87.30
63881;BME280;50046;46.672;11.152;2022-09-01T00:31:43;97977.84;;;17.83;87.03
63881;BME280;50046;46.672;11.152;2022-09-01T00:31:54;97980.59;;;17.83;86.91
63881;BME280;50046;46.672;11.152;2022-09-01T00:32:07;97984.13;;;17.84;86.78
63881;BME280;50046;46.672;11.152;2022-09-01T00:32:17;97982.50;;;17.83;86.71
63881;BME280;50046;46.672;11.152;2022-09-01T00:32:30;97978.97;;;17.82;86.71
63881;BME280;50046;46.672;11.152;2022-09-01T00:32:40;97975.22;;;17.78;86.50
63881;BME280;50046;46.672;11.152;2022-09-01T00:32:55;97977.06;;;17.83;86.46
63881;BME280;50046;46.672;11.152;2022-09-01T00:33:06;97975.63;;;17.85;86.67
63881;BME280;50046;46.672;11.152;2022-09-01T00:33:17;97975.63;;;17.85;86.38
63881;BME280;50046;46.672;11.152;2022-09-01T00:33:27;97981.09;;;17.85;86.38
63881;BME280;50046;46.672;11.152;2022-09-01T00:33:38;97978.34;;;17.85;86.37
63881;BME280;50046;46.672;11.152;2022-09-01T00:33:49;97980.94;;;17.90;86.42
63881;BME280;50046;46.672;11.152;2022-09-01T00:33:59;97978.53;;;17.89;86.40
63881;BME280;50046;46.672;11.152;2022-09-01T00:34:10;97984.78;;;17.89;86.52
63881;BME280;50046;46.672;11.152;2022-09-01T00:34:21;97975.00;;;17.88;86.42
63881;BME280;50046;46.672;11.152;2022-09-01T00:34:31;97977.41;;;17.90;86.41
63881;BME280;50046;46.672;11.152;2022-09-01T00:34:41;97973.56;;;17.91;86.12
63881;BME280;50046;46.672;11.152;2022-09-01T00:34:52;97974.19;;;17.88;86.34
63881;BME280;50046;46.672;11.152;2022-09-01T00:35:03;97979.16;;;17.86;86.23
63881;BME280;50046;46.672;11.152;2022-09-01T00:35:16;97969.03;;;17.86;86.48
63881;BME280;50046;46.672;11.152;2022-09-01T00:35:27;97974.50;;;17.86;86.57
63881;BME280;50046;46.672;11.152;2022-09-01T00:35:37;97973.69;;;17.86;86.64
63881;BME280;50046;46.672;11.152;2022-09-01T00:35:48;97973.69;;;17.86;86.56
63881;BME280;50046;46.672;11.152;2022-09-01T00:35:58;97980.28;;;17.85;86.59
63881;BME280;50046;46.672;11.152;2022-09-01T00:36:09;97974.50;;;17.86;86.23
63881;BME280;50046;46.672;11.152;2022-09-01T00:36:20;97973.53;;;17.82;86.33
63881;BME280;50046;46.672;11.152;2022-09-01T00:36:30;97976.00;;;17.78;86.22
63881;BME280;50046;46.672;11.152;2022-09-01T00:36:41;97977.69;;;17.79;86.53
63881;BME280;50046;46.672;11.152;2022-09-01T00:36:52;97972.09;;;17.85;86.66
63881;BME280;50046;46.672;11.152;2022-09-01T00:37:02;97971.63;;;17.91;85.96
63881;BME280;50046;46.672;11.152;2022-09-01T00:37:12;97968.72;;;17.88;86.13
63881;BME280;50046;46.672;11.152;2022-09-01T00:37:23;97975.13;;;17.83;86.14
63881;BME280;50046;46.672;11.152;2022-09-01T00:37:34;97971.25;;;17.84;86.10
63881;BME280;50046;46.672;11.152;2022-09-01T00:37:44;97974.09;;;17.79;86.21
63881;BME280;50046;46.672;11.152;2022-09-01T00:37:55;97971.09;;;17.80;86.41
63881;BME280;50046;46.672;11.152;2022-09-01T00:38:05;97969.16;;;17.81;86.34
63881;BME280;50046;46.672;11.152;2022-09-01T00:38:15;97971.34;;;17.79;86.51
63881;BME280;50046;46.672;11.152;2022-09-01T00:38:26;97966.53;;;17.76;86.44
63881;BME280;50046;46.672;11.152;2022-09-01T00:38:40;97966.84;;;17.74;86.60
63881;BME280;50046;46.672;11.152;2022-09-01T00:38:52;97965.22;;;17.73;86.76
63881;BME280;50046;46.672;11.152;2022-09-01T00:39:04;97969.38;;;17.71;86.91
63881;BME280;50046;46.672;11.152;2022-09-01T00:39:15;97966.16;;;17.69;87.04
63881;BME280;50046;46.672;11.152;2022-09-01T00:39:25;97970.00;;;17.68;87.52
63881;BME280;50046;46.672;11.152;2022-09-01T00:39:36;97970.63;;;17.65;87.41
63881;BME280;50046;46.672;11.152;2022-09-01T00:39:46;97972.56;;;17.64;87.39
63881;BME280;50046;46.672;11.152;2022-09-01T00:39:57;97964.66;;;17.63;87.27
63881;BME280;50046;46.672;11.152;2022-09-01T00:40:08;97965.47;;;17.63;87.68
63881;BME280;50046;46.672;11.152;2022-09-01T00:40:20;97967.91;;;17.65;87.66
63881;BME280;50046;46.672;11.152;2022-09-01T00:40:31;97967.56;;;17.66;87.64
63881;BME280;50046;46.672;11.152;2022-09-01T00:40:42;97969.50;;;17.66;87.77
63881;BME280;50046;46.672;11.152;2022-09-01T00:40:53;97962.44;;;17.65;87.76
63881;BME280;50046;46.672;11.152;2022-09-01T00:41:05;97965.97;;;17.65;87.83
63881;BME280;50046;46.672;11.152;2022-09-01T00:41:20;97961.00;;;17.67;87.50
63881;BME280;50046;46.672;11.152;2022-09-01T00:41:33;97964.53;;;17.68;87.76
63881;BME280;50046;46.672;11.152;2022-09-01T00:41:44;97965.97;;;17.65;87.73
63881;BME280;50046;46.672;11.152;2022-09-01T00:41:56;97963.25;;;17.65;87.49
63881;BME280;50046;46.672;11.152;2022-09-01T00:42:07;97955.56;;;17.67;87.00
63881;BME280;50046;46.672;11.152;2022-09-01T00:42:18;97968.28;;;17.72;86.36
63881;BME280;50046;46.672;11.152;2022-09-01T00:42:28;97962.00;;;17.71;86.47
63881;BME280;50046;46.672;11.152;2022-09-01T00:42:39;97964.72;;;17.71;86.03
63881;BME280;50046;46.672;11.152;2022-09-01T00:42:50;97967.44;;;17.71;86.22
63881;BME280;50046;46.672;11.152;2022-09-01T00:43:13;97966.66;;;17.71;86.30
63881;BME280;50046;46.672;11.152;2022-09-01T00:43:52;97966.03;;;17.74;86.38
63881;BME280;50046;46.672;11.152;2022-09-01T00:44:09;97961.69;;;17.73;86.21
63881;BME280;50046;46.672;11.152;2022-09-01T00:44:21;97959.75;;;17.73;86.25
63881;BME280;50046;46.672;11.152;2022-09-01T00:44:36;97960.38;;;17.70;86.39
63881;BME280;50046;46.672;11.152;2022-09-01T00:44:47;97957.34;;;17.72;86.38
63881;BME280;50046;46.672;11.152;2022-09-01T00:44:58;97965.03;;;17.70;86.04
63881;BME280;50046;46.672;11.152;2022-09-01T00:45:09;97959.59;;;17.70;86.05
63881;BME280;50046;46.672;11.152;2022-09-01T00:45:20;97961.19;;;17.71;86.34
63881;BME280;50046;46.672;11.152;2022-09-01T00:45:31;97959.75;;;17.73;86.52
63881;BME280;50046;46.672;11.152;2022-09-01T00:45:42;97962.50;;;17.73;86.37
63881;BME280;50046;46.672;11.152;2022-09-01T00:45:53;97957.34;;;17.72;86.16
63881;BME280;50046;46.672;11.152;2022-09-01T00:46:06;97962.19;;;17.75;86.48
63881;BME280;50046;46.672;11.152;2022-09-01T00:46:19;97959.47;;;17.75;86.17
63881;BME280;50046;46.672;11.152;2022-09-01T00:46:36;97959.47;;;17.75;86.28
63881;BME280;50046;46.672;11.152;2022-09-01T00:46:49;97963.28;;;17.74;86.51
63881;BME280;50046;46.672;11.152;2022-09-01T00:47:00;97964.91;;;17.75;86.19
63881;BME280;50046;46.672;11.152;2022-09-01T00:47:10;97961.38;;;17.74;86.06
63881;BME280;50046;46.672;11.152;2022-09-01T00:47:21;97958.16;;;17.72;85.55
63881;BME280;50046;46.672;11.152;2022-09-01T00:47:31;97961.50;;;17.69;85.46
63881;BME280;50046;46.672;11.152;2022-09-01T00:47:41;97960.69;;;17.69;85.47
63881;BME280;50046;46.672;11.152;2022-09-01T00:47:52;97960.69;;;17.69;85.41
63881;BME280;50046;46.672;11.152;2022-09-01T00:48:02;97961.50;;;17.69;85.60
63881;BME280;50046;46.672;11.152;2022-09-01T00:48:14;97957.97;;;17.69;85.63
63881;BME280;50046;46.672;11.152;2022-09-01T00:48:25;97958.78;;;17.69;85.66
63881;BME280;50046;46.672;11.152;2022-09-01T00:48:36;97962.81;;;17.72;85.40
63881;BME280;50046;46.672;11.152;2022-09-01T00:48:51;97960.56;;;17.74;85.47
63881;BME280;50046;46.672;11.152;2022-09-01T00:49:38;97955.09;;;17.74;85.25
63881;BME280;50046;46.672;11.152;2022-09-01T00:49:50;97958.16;;;17.72;85.67
63881;BME280;50046;46.672;11.152;2022-09-01T00:50:04;97961.69;;;17.73;85.64
63881;BME280;50046;46.672;11.152;2022-09-01T00:50:17;97958.97;;;17.73;85.72
63881;BME280;50046;46.672;11.152;2022-09-01T00:50:28;97960.56;;;17.74;85.57
63881;BME280;50046;46.672;11.152;2022-09-01T00:50:38;97960.56;;;17.74;85.46
63881;BME280;50046;46.672;11.152;2022-09-01T00:50:49;97965.72;;;17.75;85.50
63881;BME280;50046;46.672;11.152;2022-09-01T00:51:00;97960.25;;;17.75;85.75
63881;BME280;50046;46.672;11.152;2022-09-01T00:51:11;97966.03;;;17.74;85.81
63881;BME280;50046;46.672;11.152;2022-09-01T00:51:22;97959.47;;;17.75;85.76
63881;BME280;50046;46.672;11.152;2022-09-01T00:51:35;97964.91;;;17.75;85.75
63881;BME280;50046;46.672;11.152;2022-09-01T00:51:50;97959.97;;;17.77;85.78
63881;BME280;50046;46.672;11.152;2022-09-01T00:52:19;97962.69;;;17.77;85.21
63881;BME280;50046;46.672;11.152;2022-09-01T00:52:34;97960.16;;;17.80;85.47
63881;BME280;50046;46.672;11.152;2022-09-01T00:52:49;97960.16;;;17.80;85.47
63881;BME280;50046;46.672;11.152;2022-09-01T00:53:00;97960.66;;;17.83;85.24
63881;BME280;50046;46.672;11.152;2022-09-01T00:53:11;97957.13;;;17.82;85.23
63881;BME280;50046;46.672;11.152;2022-09-01T00:53:22;97964.50;;;17.81;84.95
63881;BME280;50046;46.672;11.152;2022-09-01T00:53:33;97956.00;;;17.83;85.06
63881;BME280;50046;46.672;11.152;2022-09-01T00:53:44;97960.97;;;17.81;85.14
63881;BME280;50046;46.672;11.152;2022-09-01T00:53:56;97965.31;;;17.82;85.08
63881;BME280;50046;46.672;11.152;2022-09-01T00:54:12;97960.97;;;17.81;85.26
63881;BME280;50046;46.672;11.152;2022-09-01T00:54:28;97964.81;;;17.80;85.44
63881;BME280;50046;46.672;11.152;2022-09-01T00:54:42;97952.78;;;17.81;86.08
63881;BME280;50046;46.672;11.152;2022-09-01T00:54:56;97962.34;;;17.78;85.42
63881;BME280;50046;46.672;11.152;2022-09-01T00:55:14;97963.50;;;17.77;85.14
63881;BME280;50046;46.672;11.152;2022-09-01T00:55:31;97956.41;;;17.76;84.83
63881;BME280;50046;46.672;11.152;2022-09-01T00:55:42;97961.84;;;17.76;85.08
63881;BME280;50046;46.672;11.152;2022-09-01T00:55:52;97961.84;;;17.76;85.28
63881;BME280;50046;46.672;11.152;2022-09-01T00:56:04;97961.06;;;17.76;85.16
63881;BME280;50046;46.672;11.152;2022-09-01T00:56:17;97959.75;;;17.73;84.91
63881;BME280;50046;46.672;11.152;2022-09-01T00:56:29;97964.91;;;17.75;85.12
63881;BME280;50046;46.672;11.152;2022-09-01T00:56:41;97957.53;;;17.75;84.98
63881;BME280;50046;46.672;11.152;2022-09-01T00:56:53;97964.59;;;17.76;85.19
63881;BME280;50046;46.672;11.152;2022-09-01T00:57:05;97956.72;;;17.75;85.01
63881;BME280;50046;46.672;11.152;2022-09-01T00:57:15;97956.41;;;17.76;84.74
63881;BME280;50046;46.672;11.152;2022-09-01T00:57:26;97956.72;;;17.75;84.71
63881;BME280;50046;46.672;11.152;2022-09-01T00:57:37;97958.03;;;17.77;84.85
63881;BME280;50046;46.672;11.152;2022-09-01T00:57:48;97959.63;;;17.78;84.63
63881;BME280;50046;46.672;11.152;2022-09-01T00:58:00;97959.97;;;17.77;84.62
63881;BME280;50046;46.672;11.152;2022-09-01T00:58:12;97958.84;;;17.78;84.73
63881;BME280;50046;46.672;11.152;2022-09-01T00:58:23;97962.34;;;17.78;84.35
63881;BME280;50046;46.672;11.152;2022-09-01T00:58:35;97953.09;;;17.79;84.19
63881;BME280;50046;46.672;11.152;2022-09-01T00:58:45;97957.22;;;17.77;84.32
63881;BME280;50046;46.672;11.152;2022-09-01T00:58:56;97955.31;;;17.77;84.23
63881;BME280;50046;46.672;11.152;2022-09-01T00:59:09;97958.31;;;17.76;84.14
63881;BME280;50046;46.672;11.152;2022-09-01T00:59:22;97962.19;;;17.75;84.27
63881;BME280;50046;46.672;11.152;2022-09-01T00:59:34;97961.38;;;17.74;84.28
63881;BME280;50046;46.672;11.152;2022-09-01T00:59:53;97958.31;;;17.76;84.46
63881;BME280;50046;46.672;11.152;2022-09-01T01:00:10;97955.94;;;17.74;84.28
63881;BME280;50046;46.672;11.152;2022-09-01T01:00:23;97955.09;;;17.74;84.25
63881;BME280;50046;46.672;11.152;2022-09-01T01:00:36;97960.97;;;17.81;84.24
63881;BME280;50046;46.672;11.152;2022-09-01T01:00:51;97958.84;;;17.78;84.15
63881;BME280;50046;46.672;11.152;2022-09-01T01:01:03;97961.16;;;17.85;84.21
63881;BME280;50046;46.672;11.152;2022-09-01T01:01:18;97950.25;;;17.85;84.06
63881;BME280;50046;46.672;11.152;2022-09-01T01:01:28;97956.31;;;17.81;84.12
63881;BME280;50046;46.672;11.152;2022-09-01T01:01:38;97952.78;;;17.81;84.11
63881;BME280;50046;46.672;11.152;2022-09-01T01:01:49;97959.63;;;17.78;84.15
63881;BME280;50046;46.672;11.152;2022-09-01T01:02:00;97958.84;;;17.78;84.29
63881;BME280;50046;46.672;11.152;2022-09-01T01:02:10;97957.22;;;17.77;84.25
63881;BME280;50046;46.672;11.152;2022-09-01T01:02:24;97961.28;;;17.79;84.70